createdAt,value
2019-02-02T00:01:35.370Z,97998.09
2019-02-02T00:03:10.376Z,97998.78
2019-02-02T00:04:45.169Z,98001.29
2019-02-02T00:06:20.976Z,98004.96
2019-02-02T00:07:55.795Z,97999.13
2019-02-02T00:09:30.833Z,97996.95
2019-02-02T00:11:07.679Z,97997.59
2019-02-02T00:12:42.704Z,98000.55
2019-02-02T00:14:17.531Z,98003.91
2019-02-02T00:15:52.675Z,98003.64
2019-02-02T00:17:27.897Z,98004.77
2019-02-02T00:19:02.800Z,98002.77
2019-02-02T00:20:37.716Z,98005.05
2019-02-02T00:22:13.011Z,98006.33
2019-02-02T00:23:47.810Z,97999.28
2019-02-02T00:25:22.731Z,97998.30
2019-02-02T00:26:58.167Z,97993.73
2019-02-02T00:28:33.227Z,97994.67
2019-02-02T00:30:10.474Z,97996.44
2019-02-02T00:31:45.474Z,97991.97
2019-02-02T00:33:26.605Z,97998.40
2019-02-02T00:35:01.778Z,97999.44
2019-02-02T00:36:37.120Z,97997.91
2019-02-02T00:38:12.286Z,98000.78
2019-02-02T00:39:47.161Z,98004.50
2019-02-02T00:41:21.987Z,98005.87
2019-02-02T00:42:57.195Z,98008.98
2019-02-02T00:44:32.310Z,98004.22
2019-02-02T00:46:07.824Z,98012.81
2019-02-02T00:47:43.044Z,98016.34
2019-02-02T00:49:17.873Z,98016.48
2019-02-02T00:50:53.073Z,98021.28
2019-02-02T00:52:27.865Z,98029.69
2019-02-02T00:54:02.729Z,98018.20
2019-02-02T00:55:37.799Z,98011.10
2019-02-02T00:57:12.610Z,98009.77
2019-02-02T00:58:47.764Z,98014.52
2019-02-02T01:00:23.168Z,98013.13
2019-02-02T01:01:58.047Z,98009.66
2019-02-02T01:03:33.262Z,98021.81
2019-02-02T01:05:11.746Z,98019.43
2019-02-02T01:06:46.647Z,98014.49
2019-02-02T01:08:21.419Z,98013.89
2019-02-02T01:09:56.361Z,98016.58
2019-02-02T01:11:31.597Z,98022.25
2019-02-02T01:13:07.374Z,98012.49
2019-02-02T01:14:42.220Z,98014.13
2019-02-02T01:16:17.108Z,98018.18
2019-02-02T01:17:52.408Z,98014.80
2019-02-02T01:19:27.225Z,98014.48
2019-02-02T01:21:02.215Z,98016.64
2019-02-02T01:22:37.414Z,98016.47
2019-02-02T01:24:12.475Z,98013.86
2019-02-02T01:25:47.336Z,98011.06
2019-02-02T01:27:22.117Z,98012.56
2019-02-02T01:28:57.220Z,98017.86
2019-02-02T01:30:32.115Z,98024.61
2019-02-02T01:32:07.230Z,98022.59
2019-02-02T01:33:42.324Z,98026.47
2019-02-02T01:35:17.834Z,98023.92
2019-02-02T01:36:52.939Z,98019.27
2019-02-02T01:38:27.818Z,98017.42
2019-02-02T01:40:02.748Z,98016.96
2019-02-02T01:41:37.674Z,98018.39
2019-02-02T01:43:12.806Z,98018.77
2019-02-02T01:44:47.694Z,98020.25
2019-02-02T01:46:22.808Z,98015.97
2019-02-02T01:47:58.735Z,98015.41
2019-02-02T01:49:33.533Z,98007.48
2019-02-02T01:51:09.416Z,98008.45
2019-02-02T01:52:44.781Z,98019.81
2019-02-02T01:54:19.688Z,98025.44
2019-02-02T01:55:54.517Z,98047.36
2019-02-02T01:57:29.329Z,98047.56
2019-02-02T01:59:04.438Z,98032.25
2019-02-02T02:00:40.874Z,98033.55
2019-02-02T02:02:15.697Z,98024.59
2019-02-02T02:03:50.574Z,98010.55
2019-02-02T02:05:25.771Z,98004.61
2019-02-02T02:07:01.027Z,97992.36
2019-02-02T02:08:36.145Z,97991.51
2019-02-02T02:10:13.383Z,97996.55
2019-02-02T02:11:48.161Z,98006.42
2019-02-02T02:13:23.244Z,97997.24
2019-02-02T02:14:58.115Z,98005.16
2019-02-02T02:16:33.173Z,98003.06
2019-02-02T02:18:08.217Z,98011.25
2019-02-02T02:19:43.068Z,98003.08
2019-02-02T02:21:17.890Z,98004.01
2019-02-02T02:22:52.911Z,98022.88
2019-02-02T02:24:27.739Z,98014.46
2019-02-02T02:26:02.659Z,98011.21
2019-02-02T02:27:37.818Z,98019.77
2019-02-02T02:29:12.794Z,98016.20
2019-02-02T02:30:48.269Z,98000.84
2019-02-02T02:32:23.131Z,98003.52
2019-02-02T02:33:58.012Z,97993.36
2019-02-02T02:35:33.126Z,97980.46
2019-02-02T02:37:08.880Z,97978.22
2019-02-02T02:38:43.669Z,97977.59
2019-02-02T02:40:21.598Z,97978.07
2019-02-02T02:41:56.660Z,97978.98
2019-02-02T02:43:31.772Z,97980.28
2019-02-02T02:45:07.520Z,97975.30
2019-02-02T02:46:42.408Z,97979.48
2019-02-02T02:48:17.559Z,97975.31
2019-02-02T02:49:52.402Z,97967.91
2019-02-02T02:51:27.201Z,97981.48
2019-02-02T02:53:02.025Z,97990.45
2019-02-02T02:54:36.811Z,97994.81
2019-02-02T02:56:11.643Z,97995.56
2019-02-02T02:57:46.716Z,97990.36
2019-02-02T02:59:21.850Z,97987.67
2019-02-02T03:00:56.734Z,97983.36
2019-02-02T03:02:31.906Z,97975.65
2019-02-02T03:04:06.870Z,97981.23
2019-02-02T03:05:41.990Z,97977.22
2019-02-02T03:07:19.417Z,97979.61
2019-02-02T03:08:53.987Z,97983.92
2019-02-02T03:10:29.158Z,97976.89
2019-02-02T03:12:04.833Z,97979.17
2019-02-02T03:13:39.634Z,97981.05
2019-02-02T03:15:15.760Z,97989.23
2019-02-02T03:16:50.615Z,97984.31
2019-02-02T03:18:25.740Z,97983.75
2019-02-02T03:20:05.931Z,97979.49
2019-02-02T03:21:43.768Z,97982.38
2019-02-02T03:23:17.626Z,97999.91
2019-02-02T03:24:52.429Z,97995.40
2019-02-02T03:26:27.769Z,98002.42
2019-02-02T03:28:02.847Z,97996.97
2019-02-02T03:29:37.693Z,98003.51
2019-02-02T03:31:12.859Z,98008.45
2019-02-02T03:32:48.331Z,98012.20
2019-02-02T03:34:23.420Z,98011.66
2019-02-02T03:35:58.533Z,98001.61
2019-02-02T03:37:33.333Z,98005.02
2019-02-02T03:39:12.983Z,98000.05
2019-02-02T03:40:47.772Z,98007.84
2019-02-02T03:42:22.858Z,97998.41
2019-02-02T03:43:57.719Z,98007.83
2019-02-02T03:45:32.588Z,98002.17
2019-02-02T03:47:07.737Z,97997.24
2019-02-02T03:48:42.570Z,97982.04
2019-02-02T03:50:17.911Z,97978.06
2019-02-02T03:51:53.340Z,97977.48
2019-02-02T03:53:28.520Z,97974.80
2019-02-02T03:55:03.338Z,97979.80
2019-02-02T03:56:38.528Z,97986.31
2019-02-02T03:58:13.337Z,97986.97
2019-02-02T03:59:48.146Z,97985.48
2019-02-02T04:01:23.223Z,97981.56
2019-02-02T04:02:58.141Z,97982.67
2019-02-02T04:04:33.559Z,97983.87
2019-02-02T04:06:08.633Z,97997.75
2019-02-02T04:07:43.764Z,98005.20
2019-02-02T04:09:18.671Z,98002.41
2019-02-02T04:10:53.744Z,98007.14
2019-02-02T04:12:28.917Z,98013.48
2019-02-02T04:14:03.785Z,98009.51
2019-02-02T04:15:38.590Z,98015.58
2019-02-02T04:17:13.732Z,98023.23
2019-02-02T04:18:49.228Z,98008.78
2019-02-02T04:20:24.386Z,98010.81
2019-02-02T04:21:59.289Z,98015.17
2019-02-02T04:23:34.173Z,98025.95
2019-02-02T04:25:09.590Z,98030.62
2019-02-02T04:26:44.978Z,98034.81
2019-02-02T04:28:19.764Z,98022.25
2019-02-02T04:29:55.074Z,98012.54
2019-02-02T04:31:30.123Z,98019.27
2019-02-02T04:33:05.265Z,98018.56
2019-02-02T04:34:40.093Z,98024.95
2019-02-02T04:36:15.163Z,98026.42
2019-02-02T04:37:49.964Z,98022.03
2019-02-02T04:39:24.788Z,98022.64
2019-02-02T04:40:59.593Z,98033.75
2019-02-02T04:42:34.389Z,98036.54
2019-02-02T04:44:09.447Z,98038.09
2019-02-02T04:45:44.536Z,98032.89
2019-02-02T04:47:19.335Z,98031.86
2019-02-02T04:48:54.128Z,98025.58
2019-02-02T04:50:29.436Z,98018.61
2019-02-02T04:52:04.618Z,98019.23
2019-02-02T04:53:40.016Z,98022.78
2019-02-02T04:55:17.643Z,98035.53
2019-02-02T04:56:52.445Z,98031.78
2019-02-02T04:58:27.606Z,98035.13
2019-02-02T05:00:02.664Z,98038.08
2019-02-02T05:01:37.482Z,98044.96
2019-02-02T05:03:12.603Z,98042.37
2019-02-02T05:04:47.432Z,98037.09
2019-02-02T05:06:22.556Z,98031.75
2019-02-02T05:07:57.430Z,98042.61
2019-02-02T05:09:32.233Z,98059.02
2019-02-02T05:11:07.056Z,98057.04
2019-02-02T05:12:41.840Z,98058.07
2019-02-02T05:14:16.977Z,98063.07
2019-02-02T05:15:52.022Z,98071.42
2019-02-02T05:17:26.822Z,98076.75
2019-02-02T05:19:01.958Z,98069.20
2019-02-02T05:20:36.779Z,98058.69
2019-02-02T05:22:12.062Z,98054.93
2019-02-02T05:23:46.860Z,98050.16
2019-02-02T05:25:21.921Z,98057.43
2019-02-02T05:26:56.748Z,98064.47
2019-02-02T05:28:31.537Z,98074.13
2019-02-02T05:30:11.469Z,98054.77
2019-02-02T05:31:50.144Z,98045.47
2019-02-02T05:33:24.947Z,98052.03
2019-02-02T05:35:00.013Z,98065.58
2019-02-02T05:36:34.811Z,98080.37
2019-02-02T05:38:09.792Z,98082.31
2019-02-02T05:39:44.970Z,98077.55
2019-02-02T05:41:19.785Z,98075.20
2019-02-02T05:42:54.719Z,98072.92
2019-02-02T05:44:29.895Z,98077.06
2019-02-02T05:46:04.764Z,98069.50
2019-02-02T05:47:39.834Z,98064.19
2019-02-02T05:49:14.647Z,98079.91
2019-02-02T05:50:49.600Z,98078.56
2019-02-02T05:52:24.652Z,98079.91
2019-02-02T05:53:59.479Z,98079.47
2019-02-02T05:55:34.283Z,98071.54
2019-02-02T05:57:09.093Z,98071.54
2019-02-02T05:58:44.146Z,98079.50
2019-02-02T06:00:28.664Z,98083.44
2019-02-02T06:02:03.548Z,98075.37
2019-02-02T06:03:38.961Z,98078.63
2019-02-02T06:05:13.986Z,98066.84
2019-02-02T06:06:48.800Z,98066.69
2019-02-02T06:08:23.936Z,98066.88
2019-02-02T06:09:59.066Z,98084.62
2019-02-02T06:11:34.180Z,98081.15
2019-02-02T06:13:11.660Z,98085.95
2019-02-02T06:14:45.903Z,98087.27
2019-02-02T06:16:20.872Z,98089.48
2019-02-02T06:17:55.742Z,98097.20
2019-02-02T06:19:30.848Z,98094.34
2019-02-02T06:21:06.349Z,98098.98
2019-02-02T06:22:41.231Z,98112.55
2019-02-02T06:24:16.072Z,98116.02
2019-02-02T06:25:50.896Z,98119.05
2019-02-02T06:27:25.955Z,98107.09
2019-02-02T06:29:00.745Z,98109.47
2019-02-02T06:30:35.613Z,98110.42
2019-02-02T06:32:11.849Z,98110.30
2019-02-02T06:33:47.308Z,98119.13
2019-02-02T06:35:22.180Z,98118.49
2019-02-02T06:36:57.507Z,98126.38
2019-02-02T06:38:32.384Z,98126.56
2019-02-02T06:40:08.362Z,98115.62
2019-02-02T06:41:43.147Z,98122.16
2019-02-02T06:43:18.220Z,98124.98
2019-02-02T06:44:53.106Z,98132.92
2019-02-02T06:46:27.928Z,98137.48
2019-02-02T06:48:04.978Z,98128.94
2019-02-02T06:49:39.772Z,98119.31
2019-02-02T06:51:17.714Z,98116.34
2019-02-02T06:52:52.844Z,98114.66
2019-02-02T06:54:31.668Z,98129.15
2019-02-02T06:56:05.161Z,98135.92
2019-02-02T06:57:40.364Z,98124.46
2019-02-02T06:59:15.491Z,98134.59
2019-02-02T07:00:56.337Z,98141.78
2019-02-02T07:02:31.162Z,98142.81
2019-02-02T07:04:07.635Z,98144.05
2019-02-02T07:05:42.436Z,98136.41
2019-02-02T07:07:17.239Z,98138.80
2019-02-02T07:08:52.127Z,98145.23
2019-02-02T07:10:28.787Z,98137.96
2019-02-02T07:12:03.933Z,98146.09
2019-02-02T07:13:38.786Z,98155.14
2019-02-02T07:15:15.018Z,98160.91
2019-02-02T07:16:49.839Z,98162.05
2019-02-02T07:18:24.803Z,98160.36
2019-02-02T07:19:59.597Z,98151.14
2019-02-02T07:21:34.387Z,98156.67
2019-02-02T07:23:11.235Z,98157.69
2019-02-02T07:24:45.753Z,98157.10
2019-02-02T07:26:21.046Z,98161.06
2019-02-02T07:27:56.121Z,98165.75
2019-02-02T07:29:31.288Z,98183.05
2019-02-02T07:31:06.526Z,98188.84
2019-02-02T07:32:41.624Z,98183.95
2019-02-02T07:34:16.438Z,98181.66
2019-02-02T07:35:54.022Z,98183.06
2019-02-02T07:37:28.343Z,98203.59
2019-02-02T07:39:04.791Z,98191.06
2019-02-02T07:40:39.867Z,98190.84
2019-02-02T07:42:15.783Z,98197.63
2019-02-02T07:43:50.578Z,98202.13
2019-02-02T07:45:30.718Z,98211.36
2019-02-02T07:47:05.654Z,98216.66
2019-02-02T07:48:40.529Z,98218.98
2019-02-02T07:50:16.741Z,98214.23
2019-02-02T07:51:51.606Z,98214.02
2019-02-02T07:53:27.014Z,98220.30
2019-02-02T07:55:02.771Z,98236.39
2019-02-02T07:56:39.892Z,98236.57
2019-02-02T07:58:14.773Z,98239.73
2019-02-02T07:59:52.344Z,98240.17
2019-02-02T08:01:29.757Z,98252.44
2019-02-02T08:03:11.647Z,98254.41
2019-02-02T08:04:51.136Z,98246.42
2019-02-02T08:06:27.838Z,98246.11
2019-02-02T08:08:05.887Z,98251.94
2019-02-02T08:09:47.400Z,98259.27
2019-02-02T08:11:27.332Z,98254.41
2019-02-02T08:13:12.171Z,98249.55
2019-02-02T08:14:50.179Z,98251.70
2019-02-02T08:16:34.532Z,98242.48
2019-02-02T08:18:15.677Z,98240.57
2019-02-02T08:19:58.133Z,98243.66
2019-02-02T08:21:41.547Z,98242.22
2019-02-02T08:23:25.782Z,98243.52
2019-02-02T08:25:08.212Z,98248.86
2019-02-02T08:26:51.941Z,98248.08
2019-02-02T08:28:36.714Z,98253.11
2019-02-02T08:30:29.946Z,98253.11
2019-02-02T08:32:16.064Z,98261.55
2019-02-02T08:34:01.515Z,98256.75
2019-02-02T08:35:46.985Z,98265.38
2019-02-02T08:37:30.426Z,98275.45
2019-02-02T08:39:28.719Z,98278.06
2019-02-02T08:41:02.967Z,98277.06
2019-02-02T08:42:47.170Z,98283.86
2019-02-02T08:44:30.353Z,98284.58
2019-02-02T08:46:15.448Z,98282.66
2019-02-02T08:48:03.238Z,98277.61
2019-02-02T08:49:49.768Z,98285.49
2019-02-02T08:51:33.914Z,98291.67
2019-02-02T08:53:16.621Z,98300.92
2019-02-02T08:55:01.082Z,98300.87
2019-02-02T08:56:48.075Z,98286.60
2019-02-02T08:58:37.051Z,98295.77
2019-02-02T09:00:26.019Z,98299.60
2019-02-02T09:02:11.828Z,98299.53
2019-02-02T09:03:58.386Z,98304.80
2019-02-02T09:05:46.663Z,98312.91
2019-02-02T09:07:37.979Z,98307.77
2019-02-02T09:09:22.293Z,98315.83
2019-02-02T09:11:09.897Z,98313.16
2019-02-02T09:12:57.105Z,98319.41
2019-02-02T09:14:45.356Z,98331.54
2019-02-02T09:16:33.112Z,98331.55
2019-02-02T09:18:19.929Z,98327.89
2019-02-02T09:20:07.455Z,98321.11
2019-02-02T09:21:56.281Z,98324.59
2019-02-02T09:23:44.213Z,98340.94
2019-02-02T09:25:31.241Z,98341.32
2019-02-02T09:27:17.896Z,98338.43
2019-02-02T09:29:04.291Z,98334.75
2019-02-02T09:30:49.494Z,98338.64
2019-02-02T09:32:36.299Z,98348.84
2019-02-02T09:34:22.590Z,98343.97
2019-02-02T09:36:16.774Z,98325.39
2019-02-02T09:38:01.907Z,98327.30
2019-02-02T09:39:49.396Z,98335.31
2019-02-02T09:41:35.959Z,98336.88
2019-02-02T09:43:22.163Z,98342.88
2019-02-02T09:45:10.739Z,98335.69
2019-02-02T09:46:55.833Z,98340.23
2019-02-02T09:48:44.269Z,98343.36
2019-02-02T09:50:31.778Z,98345.56
2019-02-02T09:52:17.894Z,98344.91
2019-02-02T09:54:03.909Z,98348.14
2019-02-02T09:55:48.227Z,98350.14
2019-02-02T09:57:36.926Z,98347.84
2019-02-02T09:59:22.138Z,98346.39
2019-02-02T10:01:06.945Z,98342.59
2019-02-02T10:02:50.966Z,98340.77
2019-02-02T10:04:34.379Z,98343.46
2019-02-02T10:06:18.622Z,98344.99
2019-02-02T10:08:02.210Z,98338.28
2019-02-02T10:09:46.433Z,98339.17
2019-02-02T10:11:34.085Z,98340.63
2019-02-02T10:13:21.676Z,98335.36
2019-02-02T10:15:06.140Z,98334.30
2019-02-02T10:16:49.672Z,98334.92
2019-02-02T10:18:36.486Z,98335.11
2019-02-02T10:20:27.982Z,98336.17
2019-02-02T10:22:14.670Z,98340.98
2019-02-02T10:24:01.843Z,98334.17
2019-02-02T10:25:50.318Z,98338.11
2019-02-02T10:27:38.168Z,98335.45
2019-02-02T10:29:25.784Z,98324.65
2019-02-02T10:31:13.493Z,98333.23
2019-02-02T10:33:01.723Z,98340.34
2019-02-02T10:34:48.703Z,98340.93
2019-02-02T10:36:36.121Z,98345.44
2019-02-02T10:38:21.827Z,98341.40
2019-02-02T10:40:08.581Z,98362.71
2019-02-02T10:41:56.242Z,98355.95
2019-02-02T10:43:44.044Z,98352.50
2019-02-02T10:45:31.082Z,98354.27
2019-02-02T10:47:17.794Z,98355.89
2019-02-02T10:49:04.671Z,98354.31
2019-02-02T10:50:51.841Z,98353.91
2019-02-02T10:52:39.230Z,98349.72
2019-02-02T10:54:25.636Z,98352.67
2019-02-02T10:56:12.619Z,98361.69
2019-02-02T10:58:02.539Z,98359.22
2019-02-02T10:59:50.681Z,98364.63
2019-02-02T11:01:37.051Z,98370.42
2019-02-02T11:03:29.291Z,98372.64
2019-02-02T11:05:19.580Z,98376.54
2019-02-02T11:07:06.292Z,98386.33
2019-02-02T11:08:52.601Z,98392.41
2019-02-02T11:10:40.437Z,98387.67
2019-02-02T11:12:30.278Z,98390.75
2019-02-02T11:14:20.174Z,98387.25
2019-02-02T11:16:08.590Z,98390.00
2019-02-02T11:18:01.166Z,98388.20
2019-02-02T11:19:49.880Z,98392.87
2019-02-02T11:21:38.239Z,98391.58
2019-02-02T11:23:25.019Z,98387.73
2019-02-02T11:25:14.034Z,98394.64
2019-02-02T11:27:01.907Z,98390.03
2019-02-02T11:28:52.485Z,98389.71
2019-02-02T11:30:42.145Z,98387.92
2019-02-02T11:32:33.936Z,98384.63
2019-02-02T11:34:24.283Z,98389.88
2019-02-02T11:36:13.295Z,98392.20
2019-02-02T11:38:05.161Z,98391.83
2019-02-02T11:39:55.613Z,98395.06
2019-02-02T11:41:44.587Z,98394.19
2019-02-02T11:43:35.070Z,98401.53
2019-02-02T11:45:23.150Z,98406.47
2019-02-02T11:47:11.253Z,98423.09
2019-02-02T11:49:03.883Z,98413.69
2019-02-02T11:50:52.921Z,98417.66
2019-02-02T11:52:42.931Z,98417.13
2019-02-02T11:54:31.036Z,98422.56
2019-02-02T11:56:19.912Z,98424.66
2019-02-02T11:58:06.767Z,98426.06
2019-02-02T11:59:55.995Z,98440.97
2019-02-02T12:01:45.022Z,98438.20
2019-02-02T12:03:34.631Z,98441.75
2019-02-02T12:05:24.386Z,98439.39
2019-02-02T12:07:12.690Z,98441.69
2019-02-02T12:09:02.133Z,98447.76
2019-02-02T12:10:51.551Z,98453.11
2019-02-02T12:12:42.180Z,98453.77
2019-02-02T12:14:30.991Z,98456.09
2019-02-02T12:16:20.938Z,98465.73
2019-02-02T12:18:07.736Z,98465.88
2019-02-02T12:19:53.329Z,98467.75
2019-02-02T12:21:40.740Z,98462.77
2019-02-02T12:23:26.232Z,98459.20
2019-02-02T12:25:14.822Z,98461.77
2019-02-02T12:26:59.748Z,98464.66
2019-02-02T12:28:47.895Z,98464.34
2019-02-02T12:30:37.500Z,98474.05
2019-02-02T12:32:27.066Z,98469.73
2019-02-02T12:34:14.234Z,98476.34
2019-02-02T12:36:01.449Z,98481.66
2019-02-02T12:37:46.455Z,98488.65
2019-02-02T12:39:34.086Z,98494.76
2019-02-02T12:41:19.186Z,98494.41
2019-02-02T12:43:08.351Z,98496.22
2019-02-02T12:44:56.029Z,98489.41
2019-02-02T12:46:46.066Z,98493.36
2019-02-02T12:48:35.549Z,98491.31
2019-02-02T12:50:23.400Z,98489.72
2019-02-02T12:52:11.962Z,98488.77
2019-02-02T12:54:00.907Z,98491.91
2019-02-02T12:55:50.166Z,98499.08
2019-02-02T12:57:40.513Z,98499.87
2019-02-02T12:59:32.361Z,98513.20
2019-02-02T13:01:22.906Z,98510.78
2019-02-02T13:03:12.767Z,98517.12
2019-02-02T13:05:03.260Z,98524.59
2019-02-02T13:06:52.538Z,98526.70
2019-02-02T13:08:41.445Z,98529.53
2019-02-02T13:10:31.921Z,98538.75
2019-02-02T13:12:21.626Z,98535.73
2019-02-02T13:14:10.693Z,98534.98
2019-02-02T13:16:02.325Z,98532.60
2019-02-02T13:17:51.752Z,98523.88
2019-02-02T13:19:43.724Z,98526.42
2019-02-02T13:21:34.848Z,98522.67
2019-02-02T13:23:23.478Z,98517.48
2019-02-02T13:25:12.714Z,98521.52
2019-02-02T13:27:00.762Z,98517.84
2019-02-02T13:28:49.378Z,98516.02
2019-02-02T13:30:43.210Z,98511.05
2019-02-02T13:32:30.871Z,98513.84
2019-02-02T13:34:26.109Z,98517.92
2019-02-02T13:36:17.972Z,98516.25
2019-02-02T13:38:07.981Z,98512.74
2019-02-02T13:39:58.102Z,98523.55
2019-02-02T13:41:48.102Z,98524.55
2019-02-02T13:43:38.407Z,98521.58
2019-02-02T13:45:29.197Z,98534.25
2019-02-02T13:47:19.922Z,98534.55
2019-02-02T13:49:08.961Z,98534.03
2019-02-02T13:50:56.983Z,98546.36
2019-02-02T13:52:46.927Z,98550.94
2019-02-02T13:54:37.079Z,98547.94
2019-02-02T13:56:25.441Z,98545.63
2019-02-02T13:58:24.555Z,98541.97
2019-02-02T14:00:17.913Z,98541.19
2019-02-02T14:02:07.507Z,98547.53
2019-02-02T14:03:57.512Z,98563.66
2019-02-02T14:05:46.673Z,98568.85
2019-02-02T14:07:38.255Z,98564.69
2019-02-02T14:09:26.635Z,98567.07
2019-02-02T14:11:14.495Z,98576.61
2019-02-02T14:13:04.501Z,98579.23
2019-02-02T14:14:54.911Z,98568.84
2019-02-02T14:16:45.697Z,98577.16
2019-02-02T14:18:33.619Z,98570.52
2019-02-02T14:20:23.433Z,98577.49
2019-02-02T14:22:13.166Z,98581.53
2019-02-02T14:24:01.992Z,98601.58
2019-02-02T14:25:51.033Z,98598.58
2019-02-02T14:27:38.999Z,98600.20
2019-02-02T14:29:26.418Z,98600.69
2019-02-02T14:31:15.283Z,98603.80
2019-02-02T14:33:13.609Z,98617.10
2019-02-02T14:34:56.588Z,98618.16
2019-02-02T14:36:45.158Z,98625.78
2019-02-02T14:38:32.666Z,98629.15
2019-02-02T14:40:21.253Z,98626.23
2019-02-02T14:42:11.147Z,98625.39
2019-02-02T14:43:55.992Z,98631.48
2019-02-02T14:45:40.355Z,98633.20
2019-02-02T14:47:29.113Z,98630.11
2019-02-02T14:49:16.746Z,98627.59
2019-02-02T14:51:02.358Z,98615.47
2019-02-02T14:52:48.699Z,98603.78
2019-02-02T14:54:35.043Z,98613.63
2019-02-02T14:56:23.191Z,98619.26
2019-02-02T14:58:08.623Z,98626.06
2019-02-02T14:59:53.278Z,98637.03
2019-02-02T15:01:38.262Z,98638.38
2019-02-02T15:03:25.712Z,98650.05
2019-02-02T15:05:10.854Z,98660.90
2019-02-02T15:06:55.324Z,98656.78
2019-02-02T15:08:39.946Z,98660.58
2019-02-02T15:10:26.214Z,98659.46
2019-02-02T15:12:11.904Z,98664.34
2019-02-02T15:13:59.872Z,98672.91
2019-02-02T15:15:45.978Z,98670.40
2019-02-02T15:17:32.911Z,98673.88
2019-02-02T15:19:18.459Z,98673.34
2019-02-02T15:21:09.369Z,98669.17
2019-02-02T15:22:54.060Z,98652.69
2019-02-02T15:24:38.651Z,98657.00
2019-02-02T15:26:23.123Z,98659.75
2019-02-02T15:28:07.784Z,98661.76
2019-02-02T15:29:54.763Z,98658.66
2019-02-02T15:31:39.830Z,98653.41
2019-02-02T15:33:37.262Z,98654.77
2019-02-02T15:35:14.335Z,98662.81
2019-02-02T15:36:59.321Z,98681.50
2019-02-02T15:38:44.876Z,98684.71
2019-02-02T15:40:31.729Z,98688.31
2019-02-02T15:42:16.058Z,98701.08
2019-02-02T15:44:01.181Z,98704.23
2019-02-02T15:45:49.826Z,98706.06
2019-02-02T15:47:34.479Z,98692.45
2019-02-02T15:49:21.331Z,98689.45
2019-02-02T15:51:06.635Z,98696.73
2019-02-02T15:52:53.910Z,98700.23
2019-02-02T15:54:39.106Z,98693.27
2019-02-02T15:56:25.206Z,98702.55
2019-02-02T15:58:11.140Z,98713.77
2019-02-02T15:59:56.671Z,98715.84
2019-02-02T16:01:43.778Z,98720.82
2019-02-02T16:03:28.518Z,98722.96
2019-02-02T16:05:17.542Z,98730.17
2019-02-02T16:07:02.787Z,98742.16
2019-02-02T16:08:48.950Z,98751.06
2019-02-02T16:10:35.418Z,98752.36
2019-02-02T16:12:20.515Z,98757.41
2019-02-02T16:14:06.071Z,98764.33
2019-02-02T16:15:52.627Z,98781.84
2019-02-02T16:17:37.122Z,98784.90
2019-02-02T16:19:21.542Z,98788.28
2019-02-02T16:21:06.645Z,98786.97
2019-02-02T16:22:51.556Z,98794.85
2019-02-02T16:24:36.503Z,98789.97
2019-02-02T16:26:23.956Z,98798.05
2019-02-02T16:28:11.824Z,98810.70
2019-02-02T16:30:01.812Z,98820.34
2019-02-02T16:31:53.175Z,98819.13
2019-02-02T16:33:45.263Z,98822.26
2019-02-02T16:35:33.294Z,98833.08
2019-02-02T16:37:24.613Z,98832.28
2019-02-02T16:39:15.783Z,98841.18
2019-02-02T16:41:05.075Z,98846.06
2019-02-02T16:42:58.212Z,98846.50
2019-02-02T16:44:49.034Z,98836.76
2019-02-02T16:46:39.598Z,98846.73
2019-02-02T16:48:31.736Z,98850.30
2019-02-02T16:50:22.940Z,98860.19
2019-02-02T16:52:11.768Z,98860.78
2019-02-02T16:54:00.590Z,98858.88
2019-02-02T16:55:52.306Z,98860.00
2019-02-02T16:57:45.797Z,98857.28
2019-02-02T16:59:31.219Z,98858.37
2019-02-02T17:01:22.403Z,98861.59
2019-02-02T17:03:07.951Z,98886.39
2019-02-02T17:04:53.180Z,98886.17
2019-02-02T17:06:40.000Z,98880.91
2019-02-02T17:08:28.255Z,98877.72
2019-02-02T17:10:16.870Z,98875.20
2019-02-02T17:12:04.889Z,98878.61
2019-02-02T17:13:52.393Z,98884.06
2019-02-02T17:15:36.127Z,98880.69
2019-02-02T17:17:25.594Z,98881.62
2019-02-02T17:19:11.209Z,98886.53
2019-02-02T17:21:00.706Z,98887.39
2019-02-02T17:22:47.991Z,98882.38
2019-02-02T17:24:35.482Z,98886.38
2019-02-02T17:26:22.092Z,98890.71
2019-02-02T17:28:09.317Z,98899.30
2019-02-02T17:29:55.280Z,98900.19
2019-02-02T17:31:41.018Z,98906.00
2019-02-02T17:33:26.698Z,98913.72
2019-02-02T17:35:14.546Z,98921.03
2019-02-02T17:36:59.796Z,98916.83
2019-02-02T17:38:44.819Z,98914.05
2019-02-02T17:40:32.235Z,98916.23
2019-02-02T17:42:18.877Z,98917.84
2019-02-02T17:44:04.995Z,98926.15
2019-02-02T17:45:50.283Z,98930.03
2019-02-02T17:47:37.164Z,98935.11
2019-02-02T17:49:22.478Z,98935.41
2019-02-02T17:51:08.779Z,98942.66
2019-02-02T17:52:54.343Z,98947.36
2019-02-02T17:54:39.091Z,98956.29
2019-02-02T17:56:26.292Z,98960.32
2019-02-02T17:58:13.313Z,98964.50
2019-02-02T17:59:59.028Z,98970.06
2019-02-02T18:01:46.857Z,98969.17
2019-02-02T18:03:35.845Z,98971.44
2019-02-02T18:05:24.553Z,98977.92
2019-02-02T18:07:09.532Z,98970.75
2019-02-02T18:08:56.656Z,98977.27
2019-02-02T18:10:44.719Z,98973.56
2019-02-02T18:12:35.069Z,98975.48
2019-02-02T18:14:22.389Z,98975.67
2019-02-02T18:16:08.103Z,98973.83
2019-02-02T18:17:53.214Z,98978.94
2019-02-02T18:19:39.776Z,98987.72
2019-02-02T18:21:24.927Z,98991.38
2019-02-02T18:23:12.859Z,98987.78
2019-02-02T18:24:59.153Z,98990.75
2019-02-02T18:26:47.592Z,98990.96
2019-02-02T18:28:33.568Z,98990.44
2019-02-02T18:30:22.595Z,98990.34
2019-02-02T18:32:13.192Z,98999.77
2019-02-02T18:33:58.428Z,98995.68
2019-02-02T18:35:47.627Z,98998.05
2019-02-02T18:37:36.589Z,98999.22
2019-02-02T18:39:24.303Z,99006.56
2019-02-02T18:41:10.860Z,99004.39
2019-02-02T18:42:56.687Z,99010.20
2019-02-02T18:44:45.160Z,99017.18
2019-02-02T18:46:38.333Z,99017.75
2019-02-02T18:48:24.247Z,99018.04
2019-02-02T18:50:16.956Z,99021.33
2019-02-02T18:52:07.768Z,99028.98
2019-02-02T18:53:57.090Z,99022.45
2019-02-02T18:55:47.449Z,99031.93
2019-02-02T18:57:36.526Z,99027.91
2019-02-02T18:59:23.227Z,99032.13
2019-02-02T19:01:10.979Z,99032.51
2019-02-02T19:02:59.734Z,99034.58
2019-02-02T19:04:48.899Z,99031.72
2019-02-02T19:06:36.317Z,99028.03
2019-02-02T19:08:22.026Z,99028.86
2019-02-02T19:10:11.854Z,99034.23
2019-02-02T19:12:04.378Z,99032.30
2019-02-02T19:13:53.426Z,99034.17
2019-02-02T19:15:41.909Z,99032.41
2019-02-02T19:17:28.851Z,99028.41
2019-02-02T19:19:17.754Z,99030.39
2019-02-02T19:21:08.169Z,99034.56
2019-02-02T19:22:56.984Z,99042.72
2019-02-02T19:24:47.525Z,99036.42
2019-02-02T19:26:37.717Z,99052.41
2019-02-02T19:28:39.346Z,99053.25
2019-02-02T19:30:23.667Z,99056.63
2019-02-02T19:32:12.295Z,99060.79
2019-02-02T19:34:00.951Z,99062.78
2019-02-02T19:35:47.321Z,99054.88
2019-02-02T19:37:35.703Z,99055.14
2019-02-02T19:39:26.835Z,99054.22
2019-02-02T19:41:15.322Z,99051.27
2019-02-02T19:43:07.742Z,99055.60
2019-02-02T19:44:54.497Z,99057.36
2019-02-02T19:46:42.347Z,99058.70
2019-02-02T19:48:30.490Z,99066.22
2019-02-02T19:50:22.257Z,99074.36
2019-02-02T19:52:13.553Z,99075.47
2019-02-02T19:54:01.491Z,99084.45
2019-02-02T19:55:48.908Z,99079.69
2019-02-02T19:57:39.045Z,99083.71
2019-02-02T19:59:26.031Z,99081.58
2019-02-02T20:01:16.877Z,99087.64
2019-02-02T20:03:09.740Z,99092.02